createdAt,value
2017-01-07T00:00:12.513Z,0
2017-01-07T00:01:12.525Z,0
2017-01-07T00:02:12.532Z,0
2017-01-07T00:03:12.539Z,0
2017-01-07T00:04:12.540Z,0
2017-01-07T00:05:12.583Z,0
2017-01-07T00:06:12.563Z,0
2017-01-07T00:07:12.569Z,0
2017-01-07T00:08:12.582Z,0
2017-01-07T00:09:12.586Z,0
2017-01-07T00:10:12.595Z,0
2017-01-07T00:11:12.603Z,0
2017-01-07T00:12:12.616Z,0
2017-01-07T00:13:12.621Z,0
2017-01-07T00:14:12.650Z,0
2017-01-07T00:15:12.631Z,0
2017-01-07T00:16:12.640Z,0
2017-01-07T00:17:12.651Z,0
2017-01-07T00:18:12.653Z,0
2017-01-07T00:19:12.671Z,0
2017-01-07T00:20:12.672Z,0
2017-01-07T00:21:12.683Z,0
2017-01-07T00:22:12.690Z,0
2017-01-07T00:23:12.704Z,0
2017-01-07T00:24:12.704Z,0
2017-01-07T00:25:12.721Z,0
2017-01-07T00:26:12.720Z,0
2017-01-07T00:27:12.733Z,0
2017-01-07T00:28:12.727Z,0
2017-01-07T00:29:12.741Z,0
2017-01-07T00:30:13.144Z,0
2017-01-07T00:31:12.767Z,0
2017-01-07T00:32:12.769Z,0
2017-01-07T00:33:12.775Z,0
2017-01-07T00:34:12.790Z,0
2017-01-07T00:35:12.789Z,0
2017-01-07T00:36:12.794Z,0
2017-01-07T00:37:12.801Z,0
2017-01-07T00:38:12.812Z,0
2017-01-07T00:39:12.823Z,0
2017-01-07T00:40:12.865Z,0
2017-01-07T00:41:12.836Z,0
2017-01-07T00:42:12.842Z,0
2017-01-07T00:43:12.853Z,0
2017-01-07T00:44:12.861Z,0
2017-01-07T00:45:12.868Z,0
2017-01-07T00:46:12.877Z,0
2017-01-07T00:47:12.882Z,0
2017-01-07T00:48:12.890Z,0
2017-01-07T00:49:12.893Z,0
2017-01-07T00:50:12.906Z,0
2017-01-07T00:51:12.912Z,0
2017-01-07T00:52:12.925Z,0
2017-01-07T00:53:12.932Z,0
2017-01-07T00:54:12.939Z,0
2017-01-07T00:55:12.943Z,0
2017-01-07T00:56:12.955Z,0
2017-01-07T00:57:12.962Z,0
2017-01-07T00:58:12.959Z,0
2017-01-07T00:59:12.969Z,0
2017-01-07T01:00:13.012Z,0
2017-01-07T01:01:13.013Z,0
2017-01-07T01:02:12.991Z,0
2017-01-07T01:03:13.002Z,0
2017-01-07T01:04:13.403Z,0
2017-01-07T01:05:13.018Z,0
2017-01-07T01:06:13.019Z,0
2017-01-07T01:07:13.084Z,0
2017-01-07T01:08:13.043Z,0
2017-01-07T01:09:13.054Z,0
2017-01-07T01:10:13.067Z,0
2017-01-07T01:11:13.065Z,0
2017-01-07T01:12:13.081Z,0
2017-01-07T01:13:13.082Z,0
2017-01-07T01:14:13.092Z,0
2017-01-07T01:15:13.122Z,0
2017-01-07T01:16:13.102Z,0
2017-01-07T01:17:13.114Z,0
2017-01-07T01:18:13.125Z,0
2017-01-07T01:19:13.129Z,0
2017-01-07T01:20:13.140Z,0
2017-01-07T01:21:13.143Z,0
2017-01-07T01:22:13.155Z,0
2017-01-07T01:23:13.159Z,0
2017-01-07T01:24:13.171Z,0
2017-01-07T01:25:13.171Z,0
2017-01-07T01:26:13.179Z,0
2017-01-07T01:27:13.192Z,0
2017-01-07T01:28:13.231Z,0
2017-01-07T01:29:13.197Z,0
2017-01-07T01:30:13.212Z,0
2017-01-07T01:31:13.226Z,0
2017-01-07T01:32:13.227Z,0
2017-01-07T01:33:13.231Z,0
2017-01-07T01:34:13.242Z,0
2017-01-07T01:35:13.250Z,0
2017-01-07T01:36:13.260Z,0
2017-01-07T01:37:13.285Z,0
2017-01-07T01:38:13.280Z,0
2017-01-07T01:39:13.283Z,0
2017-01-07T01:40:13.290Z,0
2017-01-07T01:41:13.295Z,0
2017-01-07T01:42:13.308Z,0
2017-01-07T01:43:13.311Z,0
2017-01-07T01:44:13.318Z,0
2017-01-07T01:45:13.330Z,0
2017-01-07T01:46:13.335Z,0
2017-01-07T01:47:13.340Z,0
2017-01-07T01:48:13.350Z,0
2017-01-07T01:49:13.362Z,0
2017-01-07T01:50:13.356Z,0
2017-01-07T01:51:13.370Z,0
2017-01-07T01:52:13.389Z,0
2017-01-07T01:53:13.389Z,0
2017-01-07T01:54:13.390Z,0
2017-01-07T01:55:13.398Z,0
2017-01-07T01:56:13.407Z,0
2017-01-07T01:57:13.417Z,0
2017-01-07T01:58:13.437Z,0
2017-01-07T01:59:13.439Z,0
2017-01-07T02:00:13.453Z,0
2017-01-07T02:01:13.458Z,0
2017-01-07T02:02:13.460Z,0
2017-01-07T02:03:13.476Z,0
2017-01-07T02:04:13.480Z,0
2017-01-07T02:05:13.482Z,0
2017-01-07T02:06:13.496Z,0
2017-01-07T02:07:13.501Z,0
2017-01-07T02:08:13.514Z,0
2017-01-07T02:09:13.518Z,0
2017-01-07T02:10:13.536Z,0
2017-01-07T02:11:13.538Z,0
2017-01-07T02:12:13.541Z,0
2017-01-07T02:13:13.568Z,0
2017-01-07T02:14:13.558Z,0
2017-01-07T02:15:13.570Z,0
2017-01-07T02:16:13.573Z,0
2017-01-07T02:17:13.585Z,0
2017-01-07T02:18:13.593Z,0
2017-01-07T02:19:13.593Z,0
2017-01-07T02:20:13.601Z,0
2017-01-07T02:21:13.617Z,0
2017-01-07T02:22:13.612Z,0
2017-01-07T02:23:13.625Z,0
2017-01-07T02:24:13.642Z,0
2017-01-07T02:25:13.641Z,0
2017-01-07T02:26:13.651Z,0
2017-01-07T02:27:13.656Z,0
2017-01-07T02:28:13.663Z,0
2017-01-07T02:29:13.677Z,0
2017-01-07T02:30:13.705Z,0
2017-01-07T02:31:13.696Z,0
2017-01-07T02:32:13.696Z,0
2017-01-07T02:33:13.706Z,0
2017-01-07T02:34:13.713Z,0
2017-01-07T02:35:13.713Z,0
2017-01-07T02:36:13.724Z,0
2017-01-07T02:37:13.740Z,0
2017-01-07T02:38:13.745Z,0
2017-01-07T02:39:13.757Z,0
2017-01-07T02:40:13.766Z,0
2017-01-07T02:41:13.773Z,0
2017-01-07T02:42:13.780Z,0
2017-01-07T02:43:13.787Z,0
2017-01-07T02:44:13.788Z,0
2017-01-07T02:45:13.799Z,0
2017-01-07T02:46:13.814Z,0
2017-01-07T02:47:13.815Z,0
2017-01-07T02:48:13.826Z,0
2017-01-07T02:49:13.826Z,0
2017-01-07T02:50:13.837Z,0
2017-01-07T02:51:13.843Z,0
2017-01-07T02:52:13.853Z,0
2017-01-07T02:53:13.857Z,0
2017-01-07T02:54:13.871Z,0
2017-01-07T02:55:13.883Z,0
2017-01-07T02:56:13.879Z,0
2017-01-07T02:57:13.886Z,0
2017-01-07T02:58:13.900Z,0
2017-01-07T02:59:13.906Z,0
2017-01-07T03:00:13.918Z,0
2017-01-07T03:01:13.919Z,0
2017-01-07T03:02:13.931Z,0
2017-01-07T03:03:13.935Z,0
2017-01-07T03:04:13.941Z,0
2017-01-07T03:05:13.949Z,0
2017-01-07T03:06:13.960Z,0
2017-01-07T03:07:13.973Z,0
2017-01-07T03:08:13.975Z,0
2017-01-07T03:09:13.988Z,0
2017-01-07T03:10:13.991Z,0
2017-01-07T03:11:13.999Z,0
2017-01-07T03:12:14.007Z,0
2017-01-07T03:13:14.019Z,0
2017-01-07T03:14:14.019Z,0
2017-01-07T03:15:14.024Z,0
2017-01-07T03:16:14.046Z,0
2017-01-07T03:17:14.048Z,0
2017-01-07T03:18:14.051Z,0
2017-01-07T03:19:14.058Z,0
2017-01-07T03:20:14.075Z,0
2017-01-07T03:21:14.071Z,0
2017-01-07T03:22:14.086Z,0
2017-01-07T03:23:14.092Z,0
2017-01-07T03:24:14.114Z,0
2017-01-07T03:25:14.182Z,0
2017-01-07T03:26:14.175Z,0
2017-01-07T03:27:14.122Z,0
2017-01-07T03:28:14.129Z,0
2017-01-07T03:29:14.141Z,0
2017-01-07T03:30:14.147Z,0
2017-01-07T03:31:14.154Z,0
2017-01-07T03:32:14.165Z,0
2017-01-07T03:33:14.169Z,0
2017-01-07T03:34:14.179Z,0
2017-01-07T03:35:14.191Z,0
2017-01-07T03:36:14.202Z,0
2017-01-07T03:37:14.203Z,0
2017-01-07T03:38:14.209Z,0
2017-01-07T03:39:14.221Z,0
2017-01-07T03:40:14.227Z,0
2017-01-07T03:41:14.233Z,0
2017-01-07T03:42:14.243Z,0
2017-01-07T03:43:14.258Z,0
2017-01-07T03:44:14.260Z,0
2017-01-07T03:45:14.269Z,0
2017-01-07T03:46:14.273Z,0
2017-01-07T03:47:14.283Z,0
2017-01-07T03:48:14.289Z,0
2017-01-07T03:49:14.294Z,0
2017-01-07T03:50:14.309Z,0
2017-01-07T03:51:14.717Z,0
2017-01-07T03:52:14.331Z,0
2017-01-07T03:53:14.330Z,0
2017-01-07T03:54:14.334Z,0
2017-01-07T03:55:14.347Z,0
2017-01-07T03:56:14.355Z,0
2017-01-07T03:57:14.359Z,0
2017-01-07T03:58:14.375Z,0
2017-01-07T03:59:14.383Z,0
2017-01-07T04:00:14.404Z,0
2017-01-07T04:01:14.394Z,0
2017-01-07T04:02:14.402Z,0
2017-01-07T04:03:14.409Z,0
2017-01-07T04:04:14.419Z,0
2017-01-07T04:05:14.427Z,0
2017-01-07T04:06:14.433Z,0
2017-01-07T04:07:14.437Z,0
2017-01-07T04:08:14.453Z,0
2017-01-07T04:09:14.458Z,0
2017-01-07T04:10:14.466Z,0
2017-01-07T04:11:14.480Z,0
2017-01-07T04:12:14.482Z,0
2017-01-07T04:13:14.487Z,0
2017-01-07T04:14:14.495Z,0
2017-01-07T04:15:14.502Z,0
2017-01-07T04:16:14.562Z,0
2017-01-07T04:17:14.524Z,0
2017-01-07T04:18:14.530Z,0
2017-01-07T04:19:14.534Z,0
2017-01-07T04:20:14.550Z,0
2017-01-07T04:21:14.576Z,0
2017-01-07T04:22:14.560Z,0
2017-01-07T04:23:14.570Z,0
2017-01-07T04:24:14.572Z,0
2017-01-07T04:25:15.008Z,0
2017-01-07T04:26:14.595Z,0
2017-01-07T04:27:14.597Z,0
2017-01-07T04:28:15.017Z,0
2017-01-07T04:29:14.622Z,0
2017-01-07T04:30:14.632Z,0
2017-01-07T04:31:14.638Z,0
2017-01-07T04:32:14.637Z,0
2017-01-07T04:33:14.648Z,0
2017-01-07T04:34:14.656Z,0
2017-01-07T04:35:14.662Z,0
2017-01-07T04:36:14.672Z,0
2017-01-07T04:37:14.681Z,0
2017-01-07T04:38:14.685Z,0
2017-01-07T04:39:14.695Z,0
2017-01-07T04:40:14.708Z,0
2017-01-07T04:41:14.710Z,0
2017-01-07T04:42:14.720Z,0
2017-01-07T04:43:14.732Z,0
2017-01-07T04:44:14.737Z,0
2017-01-07T04:45:14.745Z,0
2017-01-07T04:46:14.749Z,0
2017-01-07T04:47:14.760Z,0
2017-01-07T04:48:14.768Z,0
2017-01-07T04:49:14.775Z,0
2017-01-07T04:50:14.788Z,0
2017-01-07T04:51:14.795Z,0
2017-01-07T04:52:14.802Z,0
2017-01-07T04:53:14.815Z,0
2017-01-07T04:54:15.217Z,0
2017-01-07T04:55:14.822Z,0
2017-01-07T04:56:14.836Z,0
2017-01-07T04:57:14.840Z,0
2017-01-07T04:58:14.848Z,0
2017-01-07T04:59:14.857Z,0
2017-01-07T05:00:14.860Z,0
2017-01-07T05:01:14.870Z,0
2017-01-07T05:02:14.885Z,0
2017-01-07T05:03:14.888Z,0
2017-01-07T05:04:14.895Z,0
2017-01-07T05:05:14.904Z,0
2017-01-07T05:06:14.914Z,0
2017-01-07T05:07:14.922Z,0
2017-01-07T05:08:14.927Z,0
2017-01-07T05:09:14.939Z,0
2017-01-07T05:10:14.947Z,0
2017-01-07T05:11:14.951Z,0
2017-01-07T05:12:14.960Z,0
2017-01-07T05:13:14.967Z,0
2017-01-07T05:14:14.978Z,0
2017-01-07T05:15:14.986Z,0
2017-01-07T05:16:14.993Z,0
2017-01-07T05:17:14.999Z,0
2017-01-07T05:18:15.006Z,0
2017-01-07T05:19:15.037Z,0
2017-01-07T05:20:15.027Z,0
2017-01-07T05:21:15.033Z,0
2017-01-07T05:22:15.038Z,0
2017-01-07T05:23:15.051Z,0
2017-01-07T05:24:15.056Z,0
2017-01-07T05:25:15.065Z,0
2017-01-07T05:26:15.077Z,0
2017-01-07T05:27:15.085Z,0
2017-01-07T05:28:15.093Z,0
2017-01-07T05:29:15.099Z,0
2017-01-07T05:30:15.105Z,0
2017-01-07T05:31:15.112Z,0
2017-01-07T05:32:15.121Z,0
2017-01-07T05:33:15.130Z,0
2017-01-07T05:34:15.135Z,0
2017-01-07T05:35:15.169Z,0
2017-01-07T05:36:15.160Z,0
2017-01-07T05:37:15.161Z,0
2017-01-07T05:38:15.170Z,0
2017-01-07T05:39:15.177Z,0
2017-01-07T05:40:15.181Z,0
2017-01-07T05:41:15.196Z,0
2017-01-07T05:42:15.208Z,0
2017-01-07T05:43:15.209Z,0
2017-01-07T05:44:15.211Z,0
2017-01-07T05:45:15.223Z,0
2017-01-07T05:46:15.234Z,0
2017-01-07T05:47:15.241Z,0
2017-01-07T05:48:15.247Z,0
2017-01-07T05:49:15.251Z,0
2017-01-07T05:50:15.269Z,0
2017-01-07T05:51:15.273Z,0
2017-01-07T05:52:15.279Z,0
2017-01-07T05:53:15.287Z,0
2017-01-07T05:54:15.299Z,0
2017-01-07T05:55:15.317Z,0
2017-01-07T05:56:15.314Z,0
2017-01-07T05:57:15.318Z,0
2017-01-07T05:58:15.329Z,0
2017-01-07T05:59:15.341Z,0
2017-01-07T06:00:15.343Z,0
2017-01-07T06:01:15.355Z,0
2017-01-07T06:02:15.361Z,0
2017-01-07T06:03:15.371Z,0
2017-01-07T06:04:15.378Z,0
2017-01-07T06:05:15.392Z,0
2017-01-07T06:06:15.391Z,0
2017-01-07T06:07:15.401Z,0
2017-01-07T06:08:15.409Z,0
2017-01-07T06:09:15.414Z,0
2017-01-07T06:10:15.422Z,0
2017-01-07T06:11:15.436Z,0
2017-01-07T06:12:15.447Z,0
2017-01-07T06:13:15.449Z,0
2017-01-07T06:14:15.455Z,0
2017-01-07T06:15:15.464Z,0
2017-01-07T06:16:15.473Z,0
2017-01-07T06:17:15.481Z,0
2017-01-07T06:18:15.492Z,0
2017-01-07T06:19:15.501Z,0
2017-01-07T06:20:15.508Z,0
2017-01-07T06:21:15.513Z,0
2017-01-07T06:22:15.527Z,0
2017-01-07T06:23:15.532Z,0
2017-01-07T06:24:15.540Z,0
2017-01-07T06:25:15.551Z,0
2017-01-07T06:26:15.956Z,0
2017-01-07T06:27:15.561Z,0
2017-01-07T06:28:15.574Z,0
2017-01-07T06:29:15.577Z,0
2017-01-07T06:30:15.583Z,0
2017-01-07T06:31:15.594Z,0
2017-01-07T06:32:15.601Z,0
2017-01-07T06:33:15.612Z,0
2017-01-07T06:34:15.618Z,0
2017-01-07T06:35:15.629Z,0
2017-01-07T06:36:15.638Z,0
2017-01-07T06:37:15.646Z,0
2017-01-07T06:38:15.652Z,0
2017-01-07T06:39:15.653Z,0
2017-01-07T06:40:15.673Z,0
2017-01-07T06:41:15.679Z,0
2017-01-07T06:42:15.686Z,0
2017-01-07T06:43:15.691Z,0
2017-01-07T06:44:15.702Z,0
2017-01-07T06:45:15.707Z,0
2017-01-07T06:46:15.715Z,0
2017-01-07T06:47:15.722Z,0
2017-01-07T06:48:15.731Z,0
2017-01-07T06:49:15.748Z,0
2017-01-07T06:50:15.745Z,0
2017-01-07T06:51:15.753Z,0
2017-01-07T06:52:15.758Z,4
2017-01-07T06:53:15.772Z,4
2017-01-07T06:54:15.780Z,0
2017-01-07T06:55:15.785Z,0
2017-01-07T06:56:15.798Z,0
2017-01-07T06:57:15.801Z,4
2017-01-07T06:58:15.820Z,4
2017-01-07T06:59:15.823Z,4
2017-01-07T07:00:15.832Z,4
2017-01-07T07:01:15.848Z,4
2017-01-07T07:02:15.844Z,8
2017-01-07T07:03:15.854Z,4
2017-01-07T07:04:15.856Z,8
2017-01-07T07:05:15.873Z,8
2017-01-07T07:06:15.878Z,8
2017-01-07T07:07:15.891Z,8
2017-01-07T07:08:15.897Z,8
2017-01-07T07:09:15.906Z,12
2017-01-07T07:10:15.912Z,12
2017-01-07T07:11:15.916Z,12
2017-01-07T07:12:15.925Z,16
2017-01-07T07:13:15.931Z,16
2017-01-07T07:14:15.947Z,16
2017-01-07T07:15:15.946Z,20
2017-01-07T07:16:15.964Z,20
2017-01-07T07:17:15.971Z,20
2017-01-07T07:18:15.978Z,20
2017-01-07T07:19:15.989Z,24
2017-01-07T07:20:15.990Z,24
2017-01-07T07:21:15.998Z,24
2017-01-07T07:22:16.006Z,28
2017-01-07T07:23:16.025Z,24
2017-01-07T07:24:16.024Z,28
2017-01-07T07:25:16.039Z,28
2017-01-07T07:26:16.043Z,32
2017-01-07T07:27:16.051Z,32
2017-01-07T07:28:16.057Z,36
2017-01-07T07:29:16.066Z,40
2017-01-07T07:30:16.067Z,40
2017-01-07T07:31:16.076Z,48
2017-01-07T07:32:16.083Z,48
2017-01-07T07:33:16.101Z,52
2017-01-07T07:34:16.107Z,56
2017-01-07T07:35:16.108Z,68
2017-01-07T07:36:16.127Z,72
2017-01-07T07:37:16.131Z,76
2017-01-07T07:38:16.141Z,80
2017-01-07T07:39:16.152Z,84
2017-01-07T07:40:16.158Z,92
2017-01-07T07:41:16.157Z,96
2017-01-07T07:42:16.171Z,96
2017-01-07T07:43:16.183Z,104
2017-01-07T07:44:16.186Z,104
2017-01-07T07:45:16.190Z,108
2017-01-07T07:46:16.208Z,116
2017-01-07T07:47:16.211Z,120
2017-01-07T07:48:16.222Z,120
2017-01-07T07:49:16.223Z,124
2017-01-07T07:50:16.239Z,128
2017-01-07T07:51:16.244Z,124
2017-01-07T07:52:16.253Z,124
2017-01-07T07:53:16.260Z,120
2017-01-07T07:54:16.266Z,116
2017-01-07T07:55:16.284Z,116
2017-01-07T07:56:16.290Z,116
2017-01-07T07:57:16.292Z,116
2017-01-07T07:58:16.303Z,116
2017-01-07T07:59:16.315Z,120
2017-01-07T08:00:16.321Z,124
2017-01-07T08:01:16.325Z,128
2017-01-07T08:02:16.340Z,124
2017-01-07T08:03:16.342Z,124
2017-01-07T08:04:16.349Z,124
2017-01-07T08:05:16.395Z,128
2017-01-07T08:06:16.367Z,128
2017-01-07T08:07:16.372Z,136
2017-01-07T08:08:16.388Z,140
2017-01-07T08:09:16.395Z,144
2017-01-07T08:10:16.412Z,148
2017-01-07T08:11:16.411Z,152
2017-01-07T08:12:16.420Z,152
2017-01-07T08:13:16.423Z,160
2017-01-07T08:14:16.429Z,160
2017-01-07T08:15:16.448Z,164
2017-01-07T08:16:16.568Z,168
2017-01-07T08:17:16.519Z,172
2017-01-07T08:18:16.475Z,172
2017-01-07T08:19:16.497Z,180
2017-01-07T08:20:16.487Z,184
2017-01-07T08:21:16.488Z,184
2017-01-07T08:22:16.505Z,184
2017-01-07T08:23:16.510Z,188
2017-01-07T08:24:16.518Z,192
2017-01-07T08:25:16.523Z,196
2017-01-07T08:26:16.532Z,200
2017-01-07T08:27:16.543Z,200
2017-01-07T08:28:16.548Z,200
2017-01-07T08:29:16.555Z,200
2017-01-07T08:30:16.564Z,200
2017-01-07T08:31:16.575Z,204
2017-01-07T08:32:16.578Z,200
2017-01-07T08:33:16.592Z,200
2017-01-07T08:34:16.600Z,200
2017-01-07T08:35:16.616Z,204
2017-01-07T08:36:16.608Z,208
2017-01-07T08:37:31.510Z,208
2017-01-07T08:38:16.635Z,212
2017-01-07T08:39:16.645Z,216
2017-01-07T08:40:16.645Z,220
2017-01-07T08:41:16.663Z,228
2017-01-07T08:42:16.671Z,228
2017-01-07T08:43:16.667Z,228
2017-01-07T08:44:16.680Z,232
2017-01-07T08:45:16.691Z,236
2017-01-07T08:46:16.701Z,240
2017-01-07T08:47:16.708Z,244
2017-01-07T08:48:16.721Z,244
2017-01-07T08:49:16.718Z,256
2017-01-07T08:50:16.727Z,264
2017-01-07T08:51:16.743Z,272
2017-01-07T08:52:16.743Z,276
2017-01-07T08:53:16.756Z,284
2017-01-07T08:54:16.763Z,288
2017-01-07T08:55:16.774Z,296
2017-01-07T08:56:16.777Z,308
2017-01-07T08:57:16.791Z,320
2017-01-07T08:58:17.001Z,324
2017-01-07T08:59:16.804Z,328
2017-01-07T09:00:16.813Z,332
2017-01-07T09:01:16.816Z,340
2017-01-07T09:02:16.828Z,348
2017-01-07T09:03:16.841Z,364
2017-01-07T09:04:16.869Z,380
2017-01-07T09:05:16.846Z,392
2017-01-07T09:06:16.862Z,400
2017-01-07T09:07:16.866Z,408
2017-01-07T09:08:16.888Z,416
2017-01-07T09:09:17.281Z,420
2017-01-07T09:10:16.898Z,432
2017-01-07T09:11:16.901Z,444
2017-01-07T09:12:16.912Z,448
2017-01-07T09:13:16.920Z,448
2017-01-07T09:14:16.952Z,452
2017-01-07T09:15:16.934Z,452
2017-01-07T09:16:16.951Z,452
2017-01-07T09:17:16.975Z,440
2017-01-07T09:18:16.958Z,428
2017-01-07T09:19:16.968Z,420
2017-01-07T09:20:16.976Z,412
2017-01-07T09:21:16.987Z,412
2017-01-07T09:22:17.033Z,412
2017-01-07T09:23:16.999Z,416
2017-01-07T09:24:17.014Z,432
2017-01-07T09:25:17.021Z,452
2017-01-07T09:26:17.423Z,468
2017-01-07T09:27:17.034Z,480
2017-01-07T09:28:17.046Z,488
2017-01-07T09:29:17.053Z,496
2017-01-07T09:30:17.089Z,496
2017-01-07T09:31:17.080Z,508
2017-01-07T09:32:17.472Z,512
2017-01-07T09:33:17.089Z,524
2017-01-07T09:34:17.115Z,532
2017-01-07T09:35:17.098Z,544
2017-01-07T09:36:17.109Z,548
2017-01-07T09:37:17.170Z,560
2017-01-07T09:38:17.135Z,580
2017-01-07T09:39:17.138Z,596
2017-01-07T09:40:17.145Z,612
2017-01-07T09:41:17.159Z,608
2017-01-07T09:42:17.162Z,596
2017-01-07T09:43:17.175Z,588
2017-01-07T09:44:17.187Z,576
2017-01-07T09:45:17.190Z,552
2017-01-07T09:46:17.203Z,548
2017-01-07T09:47:17.204Z,552
2017-01-07T09:48:17.212Z,540
2017-01-07T09:49:17.222Z,512
2017-01-07T09:50:17.233Z,496
2017-01-07T09:51:17.238Z,500
2017-01-07T09:52:17.461Z,500
2017-01-07T09:53:17.252Z,476
2017-01-07T09:54:17.275Z,444
2017-01-07T09:55:17.285Z,424
2017-01-07T09:56:17.279Z,428
2017-01-07T09:57:17.290Z,440
2017-01-07T09:58:17.302Z,452
2017-01-07T09:59:17.305Z,464
2017-01-07T10:00:17.318Z,468
2017-01-07T10:01:17.327Z,476
2017-01-07T10:02:17.364Z,496
2017-01-07T10:03:17.343Z,520
2017-01-07T10:04:17.352Z,536
2017-01-07T10:05:17.359Z,540
2017-01-07T10:06:17.372Z,540
2017-01-07T10:07:17.386Z,524
2017-01-07T10:08:17.389Z,500
2017-01-07T10:09:17.401Z,476
2017-01-07T10:10:17.399Z,460
2017-01-07T10:11:17.415Z,440
2017-01-07T10:12:17.425Z,424
2017-01-07T10:13:17.434Z,412
2017-01-07T10:14:17.438Z,396
2017-01-07T10:15:17.447Z,384
2017-01-07T10:16:17.469Z,376
2017-01-07T10:17:17.471Z,368
2017-01-07T10:18:17.474Z,368
2017-01-07T10:19:17.482Z,376
2017-01-07T10:20:17.498Z,408
2017-01-07T10:21:17.499Z,448
2017-01-07T10:22:17.511Z,484
2017-01-07T10:23:17.527Z,512
2017-01-07T10:24:17.527Z,532
2017-01-07T10:25:17.534Z,548
2017-01-07T10:26:17.551Z,572
2017-01-07T10:27:17.556Z,596
2017-01-07T10:28:17.563Z,620
2017-01-07T10:29:17.574Z,648
2017-01-07T10:30:17.581Z,664
2017-01-07T10:31:17.597Z,680
2017-01-07T10:32:17.594Z,696
2017-01-07T10:33:17.600Z,704
2017-01-07T10:34:17.619Z,716
2017-01-07T10:35:17.626Z,712
2017-01-07T10:36:17.634Z,696
2017-01-07T10:37:17.644Z,652
2017-01-07T10:38:17.651Z,604
2017-01-07T10:39:17.660Z,564
2017-01-07T10:40:17.670Z,544
2017-01-07T10:41:17.679Z,536
2017-01-07T10:42:17.689Z,548
2017-01-07T10:43:17.695Z,564
2017-01-07T10:44:17.706Z,576
2017-01-07T10:45:17.717Z,584
2017-01-07T10:46:17.725Z,580
2017-01-07T10:47:17.728Z,580
2017-01-07T10:48:17.745Z,592
2017-01-07T10:49:17.753Z,612
2017-01-07T10:50:17.792Z,644
2017-01-07T10:51:17.766Z,684
2017-01-07T10:52:17.778Z,716
2017-01-07T10:53:17.786Z,748
2017-01-07T10:54:17.800Z,776
2017-01-07T10:55:17.801Z,800
2017-01-07T10:56:17.815Z,824
2017-01-07T10:57:17.824Z,840
2017-01-07T10:58:17.837Z,852
2017-01-07T10:59:17.842Z,860
2017-01-07T11:00:17.847Z,860
2017-01-07T11:01:17.871Z,868
2017-01-07T11:02:17.867Z,880
2017-01-07T11:03:17.906Z,888
2017-01-07T11:04:17.921Z,880
2017-01-07T11:05:17.893Z,852
2017-01-07T11:06:17.903Z,816
2017-01-07T11:07:17.914Z,784
2017-01-07T11:08:17.928Z,764
2017-01-07T11:09:17.928Z,756
2017-01-07T11:10:17.941Z,756
2017-01-07T11:11:17.950Z,752
2017-01-07T11:12:17.955Z,760
2017-01-07T11:13:17.964Z,772
2017-01-07T11:14:17.977Z,780
2017-01-07T11:15:17.983Z,776
2017-01-07T11:16:17.991Z,776
2017-01-07T11:17:18.024Z,772
2017-01-07T11:18:18.012Z,772
2017-01-07T11:19:18.023Z,776
2017-01-07T11:20:18.032Z,768
2017-01-07T11:21:18.034Z,760
2017-01-07T11:22:18.048Z,756
2017-01-07T11:23:18.059Z,760
2017-01-07T11:24:18.067Z,772
2017-01-07T11:25:18.243Z,784
2017-01-07T11:26:18.086Z,792
2017-01-07T11:27:18.096Z,792
2017-01-07T11:28:18.101Z,784
2017-01-07T11:29:18.114Z,776
2017-01-07T11:30:18.118Z,772
2017-01-07T11:31:18.134Z,764
2017-01-07T11:32:18.137Z,760
2017-01-07T11:33:18.149Z,760
2017-01-07T11:34:18.162Z,760
2017-01-07T11:35:18.173Z,760
2017-01-07T11:36:18.182Z,768
2017-01-07T11:37:18.190Z,772
2017-01-07T11:38:18.195Z,772
2017-01-07T11:39:18.203Z,764
2017-01-07T11:40:18.220Z,760
2017-01-07T11:41:18.219Z,756
2017-01-07T11:42:18.238Z,752
2017-01-07T11:43:18.238Z,744
2017-01-07T11:44:18.250Z,748
2017-01-07T11:45:18.270Z,768
2017-01-07T11:46:18.268Z,788
2017-01-07T11:47:18.279Z,792
2017-01-07T11:48:18.294Z,788
2017-01-07T11:49:18.295Z,792
2017-01-07T11:50:18.309Z,796
2017-01-07T11:51:18.315Z,780
2017-01-07T11:52:18.327Z,760
2017-01-07T11:53:18.332Z,744
2017-01-07T11:54:18.341Z,752
2017-01-07T11:55:18.356Z,764
2017-01-07T11:56:18.362Z,776
2017-01-07T11:57:18.370Z,780
2017-01-07T11:58:18.389Z,772
2017-01-07T11:59:18.395Z,748
2017-01-07T12:00:18.401Z,720
2017-01-07T12:01:18.405Z,684
2017-01-07T12:02:18.418Z,656
2017-01-07T12:03:18.430Z,640
2017-01-07T12:04:18.447Z,640
2017-01-07T12:05:18.447Z,644
2017-01-07T12:06:18.457Z,644
2017-01-07T12:07:18.464Z,648
2017-01-07T12:08:18.472Z,648
2017-01-07T12:09:18.496Z,648
2017-01-07T12:10:18.491Z,652
2017-01-07T12:11:18.501Z,652
2017-01-07T12:12:18.508Z,644
2017-01-07T12:13:18.527Z,628
2017-01-07T12:14:18.533Z,616
2017-01-07T12:15:18.541Z,608
2017-01-07T12:16:18.550Z,596
2017-01-07T12:17:18.559Z,600
2017-01-07T12:18:18.571Z,600
2017-01-07T12:19:18.576Z,588
2017-01-07T12:20:18.586Z,596
2017-01-07T12:21:18.600Z,604
2017-01-07T12:22:18.604Z,596
2017-01-07T12:23:18.612Z,596
2017-01-07T12:24:18.623Z,612
2017-01-07T12:25:18.633Z,616
2017-01-07T12:26:18.645Z,620
2017-01-07T12:27:18.657Z,616
2017-01-07T12:28:18.659Z,612
2017-01-07T12:29:18.670Z,612
2017-01-07T12:30:19.076Z,612
2017-01-07T12:31:18.690Z,616
2017-01-07T12:32:18.703Z,620
2017-01-07T12:33:18.711Z,612
2017-01-07T12:34:18.719Z,608
2017-01-07T12:35:18.721Z,612
2017-01-07T12:36:18.731Z,608
2017-01-07T12:37:18.741Z,604
2017-01-07T12:38:18.748Z,596
2017-01-07T12:39:18.760Z,588
2017-01-07T12:40:18.773Z,584
2017-01-07T12:41:18.784Z,580
2017-01-07T12:42:18.784Z,572
2017-01-07T12:43:18.808Z,560
2017-01-07T12:44:18.805Z,540
2017-01-07T12:45:18.819Z,528
2017-01-07T12:46:18.822Z,524
2017-01-07T12:47:19.234Z,520
2017-01-07T12:48:18.843Z,524
2017-01-07T12:49:18.849Z,536
2017-01-07T12:50:18.860Z,552
2017-01-07T12:51:18.877Z,552
2017-01-07T12:52:18.881Z,548
2017-01-07T12:53:18.884Z,540
2017-01-07T12:54:18.900Z,536
2017-01-07T12:55:18.906Z,528
2017-01-07T12:56:18.917Z,524
2017-01-07T12:57:18.927Z,520
2017-01-07T12:58:18.936Z,512
2017-01-07T12:59:18.943Z,512
2017-01-07T13:00:18.956Z,508
2017-01-07T13:01:18.972Z,496
2017-01-07T13:02:18.975Z,488
2017-01-07T13:03:18.980Z,472
2017-01-07T13:04:18.994Z,464
2017-01-07T13:05:19.006Z,460
2017-01-07T13:06:19.409Z,452
2017-01-07T13:07:19.014Z,452
2017-01-07T13:08:19.032Z,444
2017-01-07T13:09:19.041Z,444
2017-01-07T13:10:19.042Z,444
2017-01-07T13:11:19.054Z,436
2017-01-07T13:12:19.059Z,424
2017-01-07T13:13:19.075Z,408
2017-01-07T13:14:19.081Z,404
2017-01-07T13:15:19.094Z,400
2017-01-07T13:16:19.100Z,396
2017-01-07T13:17:19.124Z,384
2017-01-07T13:18:19.118Z,380
2017-01-07T13:19:19.132Z,388
2017-01-07T13:20:19.136Z,392
2017-01-07T13:21:19.544Z,396
2017-01-07T13:22:19.158Z,396
2017-01-07T13:23:19.168Z,400
2017-01-07T13:24:19.181Z,404
2017-01-07T13:25:19.188Z,400
2017-01-07T13:26:19.191Z,392
2017-01-07T13:27:19.203Z,388
2017-01-07T13:28:19.209Z,400
2017-01-07T13:29:19.227Z,400
2017-01-07T13:30:19.238Z,396
2017-01-07T13:31:19.242Z,396
2017-01-07T13:32:19.247Z,400
2017-01-07T13:33:19.266Z,396
2017-01-07T13:34:19.274Z,388
2017-01-07T13:35:19.275Z,376
2017-01-07T13:36:19.316Z,348
2017-01-07T13:37:19.292Z,324
2017-01-07T13:38:19.304Z,300
2017-01-07T13:39:19.311Z,284
2017-01-07T13:40:19.326Z,268
2017-01-07T13:41:19.333Z,256
2017-01-07T13:42:19.339Z,240
2017-01-07T13:43:19.370Z,232
2017-01-07T13:44:19.358Z,228
2017-01-07T13:45:19.372Z,220
2017-01-07T13:46:19.376Z,216
2017-01-07T13:47:19.389Z,220
2017-01-07T13:48:19.398Z,212
2017-01-07T13:49:19.426Z,208
2017-01-07T13:50:19.418Z,200
2017-01-07T13:51:19.429Z,204
2017-01-07T13:52:19.430Z,200
2017-01-07T13:53:19.441Z,192
2017-01-07T13:54:19.454Z,192
2017-01-07T13:55:19.458Z,180
2017-01-07T13:56:19.481Z,180
2017-01-07T13:57:19.476Z,184
2017-01-07T13:58:19.498Z,184
2017-01-07T13:59:19.499Z,184
2017-01-07T14:00:19.507Z,176
2017-01-07T14:01:19.508Z,164
2017-01-07T14:02:19.532Z,164
2017-01-07T14:03:19.529Z,160
2017-01-07T14:04:19.548Z,156
2017-01-07T14:05:19.547Z,148
2017-01-07T14:06:19.559Z,136
2017-01-07T14:07:19.570Z,128
2017-01-07T14:08:19.573Z,124
2017-01-07T14:09:19.587Z,124
2017-01-07T14:10:19.600Z,124
2017-01-07T14:11:19.605Z,120
2017-01-07T14:12:19.627Z,116
2017-01-07T14:13:19.625Z,116
2017-01-07T14:14:19.630Z,116
2017-01-07T14:15:19.644Z,116
2017-01-07T14:16:19.652Z,108